Time;durP1;ratioP1;P1;durP2;ratioP2;P2;SDS_P1;SDS_P2;PMS_P1;PMS_P2;Temp;Humidity;BMP_temperature;BMP_pressure;BME280_temperature;BME280_humidity;BME280_pressure;Samples;Min_cycle;Max_cycle;Signal;HPM_P1;HPM_P2
2024/04/14 00:01:06;;;;;;;7.32;2.30;;;16.00;95.20;;;;;;5464877;26;19999;-76
2024/04/14 00:03:32;;;;;;;8.60;2.63;;;16.00;95.40;;;;;;5477515;26;19998;-76
2024/04/14 00:05:58;;;;;;;6.80;2.00;;;15.90;95.40;;;;;;5460653;26;20002;-76
2024/04/14 00:08:23;;;;;;;9.50;2.20;;;15.90;95.50;;;;;;5456185;26;20003;-76
2024/04/14 00:10:49;;;;;;;7.78;2.55;;;15.90;95.60;;;;;;5470712;26;20348;-76
2024/04/14 00:13:15;;;;;;;6.82;2.22;;;15.80;95.60;;;;;;5467252;26;20011;-76
2024/04/14 00:15:40;;;;;;;8.10;2.20;;;15.80;95.70;;;;;;5456516;26;20364;-76
2024/04/14 00:18:06;;;;;;;8.25;2.20;;;15.80;95.80;;;;;;5463207;26;19999;-76
2024/04/14 00:20:32;;;;;;;6.50;2.10;;;15.80;96.00;;;;;;5471642;26;20487;-76
2024/04/14 00:22:59;;;;;;;7.63;2.40;;;15.80;96.00;;;;;;5459624;26;19998;-76
2024/04/14 00:25:25;;;;;;;6.88;2.50;;;15.70;95.90;;;;;;5456276;26;19998;-76
2024/04/14 00:27:50;;;;;;;10.23;2.40;;;15.60;96.00;;;;;;5481307;26;19994;-76
2024/04/14 00:30:16;;;;;;;7.40;3.05;;;15.60;96.20;;;;;;5480262;26;19994;-76
2024/04/14 00:32:41;;;;;;;10.05;2.80;;;15.60;96.40;;;;;;5455546;26;20323;-76
2024/04/14 00:35:07;;;;;;;9.93;2.70;;;15.60;96.50;;;;;;5482236;26;20002;-76
2024/04/14 00:37:33;;;;;;;9.02;3.35;;;15.60;96.50;;;;;;5456261;26;19998;-76
2024/04/14 00:39:58;;;;;;;7.93;2.83;;;15.50;96.50;;;;;;5466570;26;20003;-76
2024/04/14 00:42:24;;;;;;;12.98;3.30;;;15.50;96.60;;;;;;5450599;26;19999;-76
2024/04/14 00:44:49;;;;;;;9.00;2.75;;;15.40;96.70;;;;;;5467995;26;20018;-76
2024/04/14 00:47:15;;;;;;;7.95;2.45;;;15.40;96.80;;;;;;5466324;26;20028;-76
2024/04/14 00:49:41;;;;;;;9.85;2.60;;;15.40;97.00;;;;;;5480638;26;20475;-76
2024/04/14 00:52:09;;;;;;;7.28;2.80;;;15.30;97.00;;;;;;5482175;26;20002;-76
2024/04/14 00:54:36;;;;;;;10.90;2.50;;;15.30;97.10;;;;;;5458131;26;19998;-76
2024/04/14 00:57:03;;;;;;;11.10;3.33;;;15.30;97.20;;;;;;5470450;26;20034;-76
2024/04/14 00:59:30;;;;;;;7.32;2.55;;;15.20;97.30;;;;;;5442721;26;20039;-76
2024/04/14 01:01:56;;;;;;;8.82;2.92;;;15.20;97.40;;;;;;5443559;26;20003;-76
2024/04/14 01:04:21;;;;;;;9.35;2.35;;;15.20;97.50;;;;;;5461071;26;20568;-77
2024/04/14 01:06:48;;;;;;;10.27;3.10;;;15.10;97.70;;;;;;5455893;26;20101;-76
2024/04/14 01:09:14;;;;;;;9.73;2.42;;;15.10;97.80;;;;;;5468388;26;20003;-76
2024/04/14 01:11:40;;;;;;;11.20;2.75;;;15.10;97.90;;;;;;5469118;26;20070;-76
2024/04/14 01:14:07;;;;;;;7.82;2.55;;;15.10;98.00;;;;;;5455283;26;20002;-76
2024/04/14 01:16:36;;;;;;;9.88;2.53;;;15.00;98.00;;;;;;5481794;26;20691;-76
2024/04/14 01:19:06;;;;;;;8.25;2.60;;;15.00;98.10;;;;;;5452666;26;20002;-76
2024/04/14 01:21:35;;;;;;;8.65;2.80;;;15.00;98.30;;;;;;5481669;26;20017;-76
2024/04/14 01:24:00;;;;;;;8.45;3.03;;;15.00;98.30;;;;;;5454728;26;20002;-76
2024/04/14 01:26:26;;;;;;;8.80;3.03;;;15.00;98.50;;;;;;5465440;26;20455;-76
2024/04/14 01:28:52;;;;;;;8.60;2.80;;;14.90;98.50;;;;;;5470815;26;20055;-76
2024/04/14 01:31:18;;;;;;;9.18;3.10;;;14.90;98.70;;;;;;5469105;26;20540;-76
2024/04/14 01:33:45;;;;;;;10.40;3.50;;;14.90;98.80;;;;;;5467183;26;20022;-76
2024/04/14 01:36:10;;;;;;;8.63;3.20;;;14.90;98.90;;;;;;5455651;26;20346;-76
2024/04/14 01:38:36;;;;;;;9.50;3.30;;;14.90;99.10;;;;;;5460686;26;20017;-76
2024/04/14 01:41:01;;;;;;;9.80;3.53;;;14.90;99.10;;;;;;5475707;26;20650;-76
2024/04/14 01:43:28;;;;;;;10.23;3.22;;;14.90;99.30;;;;;;5480082;26;19998;-76
2024/04/14 01:45:53;;;;;;;11.23;3.15;;;14.80;99.50;;;;;;5454925;26;20002;-76
2024/04/14 01:48:19;;;;;;;8.10;3.03;;;14.90;99.60;;;;;;5480589;26;20351;-76
2024/04/14 01:50:45;;;;;;;11.90;3.08;;;14.80;99.60;;;;;;5474228;26;20034;-76
2024/04/14 01:53:11;;;;;;;11.65;3.78;;;14.80;99.70;;;;;;5480085;26;20967;-76
2024/04/14 01:55:36;;;;;;;12.68;4.43;;;14.80;99.80;;;;;;5468409;26;20084;-76
2024/04/14 01:58:02;;;;;;;12.10;4.13;;;14.80;99.90;;;;;;5455151;26;20003;-76
2024/04/14 02:00:28;;;;;;;11.88;5.13;;;14.80;99.90;;;;;;5469906;26;20084;-76
2024/04/14 02:02:55;;;;;;;12.55;4.18;;;14.80;99.90;;;;;;5463675;26;20453;-76
2024/04/14 02:05:22;;;;;;;14.00;3.75;;;14.80;99.90;;;;;;5455322;26;20365;-76
2024/04/14 02:07:48;;;;;;;14.15;4.25;;;14.80;99.90;;;;;;5461982;26;20575;-76
2024/04/14 02:10:13;;;;;;;15.75;4.55;;;14.80;99.90;;;;;;5469615;26;20009;-76
2024/04/14 02:12:39;;;;;;;14.88;6.05;;;14.80;99.90;;;;;;5465619;26;20083;-76
2024/04/14 02:15:05;;;;;;;15.68;5.15;;;14.80;99.90;;;;;;5468170;26;20013;-76
2024/04/14 02:17:31;;;;;;;13.63;5.40;;;14.80;99.90;;;;;;5454732;26;20017;-76
2024/04/14 02:19:56;;;;;;;10.90;3.83;;;14.80;99.90;;;;;;5459241;26;20002;-76
2024/04/14 02:22:22;;;;;;;7.50;2.33;;;14.80;99.90;;;;;;5475592;26;20074;-76
2024/04/14 02:24:48;;;;;;;7.57;2.55;;;14.80;99.90;;;;;;5462869;26;19998;-76
2024/04/14 02:27:14;;;;;;;9.48;2.42;;;14.80;99.90;;;;;;5469638;26;19997;-76
2024/04/14 02:29:39;;;;;;;8.90;2.90;;;14.80;99.90;;;;;;5456094;26;19998;-76
2024/04/14 02:32:05;;;;;;;8.48;1.83;;;14.80;99.90;;;;;;5456443;26;20039;-76
2024/04/14 02:34:31;;;;;;;6.50;1.85;;;14.80;99.90;;;;;;5477990;26;19998;-76
2024/04/14 02:36:56;;;;;;;6.57;1.70;;;14.80;99.90;;;;;;5480145;26;20343;-76
2024/04/14 02:39:22;;;;;;;9.18;2.13;;;14.80;99.90;;;;;;5479606;26;20486;-76
2024/04/14 02:41:49;;;;;;;9.32;1.85;;;14.80;99.90;;;;;;5479499;26;20002;-75
2024/04/14 02:44:16;;;;;;;8.10;1.73;;;14.80;99.90;;;;;;5479134;26;20017;-76
2024/04/14 02:46:43;;;;;;;7.18;1.60;;;14.80;99.90;;;;;;5465980;26;20010;-75
2024/04/14 02:49:09;;;;;;;7.13;1.67;;;14.80;99.90;;;;;;5467988;26;20529;-76
2024/04/14 02:51:35;;;;;;;5.40;1.30;;;14.70;99.90;;;;;;5479696;26;19998;-76
2024/04/14 02:54:00;;;;;;;8.65;1.60;;;14.70;99.90;;;;;;5464735;26;20003;-76
2024/04/14 02:56:26;;;;;;;7.18;1.77;;;14.70;99.90;;;;;;5468464;26;20473;-76
2024/04/14 02:58:52;;;;;;;10.60;1.83;;;14.70;99.90;;;;;;5453161;26;20010;-76
2024/04/14 03:01:18;;;;;;;5.70;1.50;;;14.70;99.90;;;;;;5458295;26;20014;-76
2024/04/14 03:03:45;;;;;;;5.78;1.60;;;14.70;99.90;;;;;;5467293;26;20009;-76
2024/04/14 03:06:11;;;;;;;4.28;1.30;;;14.70;99.90;;;;;;5461451;26;19999;-76
2024/04/14 03:08:36;;;;;;;7.72;1.80;;;14.60;99.90;;;;;;5453121;26;20471;-76
2024/04/14 03:11:02;;;;;;;5.60;1.50;;;14.60;99.90;;;;;;5464429;26;19999;-76
2024/04/14 03:13:29;;;;;;;6.13;1.30;;;14.60;99.90;;;;;;5472021;26;20008;-76
2024/04/14 03:15:55;;;;;;;3.53;1.02;;;14.60;99.90;;;;;;5457710;26;20046;-76
2024/04/14 03:18:20;;;;;;;6.70;1.58;;;14.60;99.90;;;;;;5464035;26;20002;-76
2024/04/14 03:21:00;;;;;;;8.02;1.35;;;14.60;99.90;;;;;;5455530;26;20009;-76
2024/04/14 03:23:26;;;;;;;7.60;1.50;;;14.60;99.90;;;;;;5460780;26;19999;-76
2024/04/14 03:25:52;;;;;;;6.28;1.23;;;14.50;99.90;;;;;;5472144;26;19999;-76
2024/04/14 03:28:22;;;;;;;8.90;1.48;;;14.50;99.90;;;;;;5464193;26;20017;-76
2024/04/14 03:30:47;;;;;;;6.78;1.30;;;14.50;99.90;;;;;;5456909;26;19998;-76
2024/04/14 03:33:13;;;;;;;7.32;1.25;;;14.50;99.90;;;;;;5467089;26;20483;-76
2024/04/14 03:35:39;;;;;;;8.23;1.50;;;14.40;99.90;;;;;;5471495;26;20014;-76
2024/04/14 03:38:05;;;;;;;11.13;1.98;;;14.50;99.90;;;;;;5444919;26;19999;-76
2024/04/14 03:40:30;;;;;;;5.38;1.27;;;14.50;99.90;;;;;;5468589;26;20014;-76
2024/04/14 03:42:56;;;;;;;7.78;1.55;;;14.40;99.90;;;;;;5463811;26;20475;-75
2024/04/14 03:45:24;;;;;;;8.43;1.48;;;14.40;99.90;;;;;;5460821;26;19998;-76
2024/04/14 03:47:52;;;;;;;7.10;1.60;;;14.40;99.90;;;;;;5476930;26;20717;-75
2024/04/14 03:50:18;;;;;;;6.68;1.70;;;14.30;99.90;;;;;;5474681;26;20515;-76
2024/04/14 03:52:44;;;;;;;7.07;1.73;;;14.30;99.90;;;;;;5461910;26;20003;-76
2024/04/14 03:55:09;;;;;;;11.68;1.90;;;14.30;99.90;;;;;;5477039;26;20013;-75
2024/04/14 03:57:35;;;;;;;7.07;1.55;;;14.30;99.90;;;;;;5465931;26;20003;-75
2024/04/14 04:00:00;;;;;;;5.45;1.13;;;14.30;99.90;;;;;;5445386;26;20448;-76
2024/04/14 04:02:26;;;;;;;6.57;1.77;;;14.20;99.90;;;;;;5467813;26;20452;-75
2024/04/14 04:04:52;;;;;;;7.47;1.55;;;14.20;99.90;;;;;;5468419;26;20453;-75
2024/04/14 04:07:17;;;;;;;9.30;1.70;;;14.20;99.90;;;;;;5441067;26;20002;-76
2024/04/14 04:09:43;;;;;;;7.43;1.58;;;14.10;99.90;;;;;;5463754;26;19998;-76
2024/04/14 04:12:08;;;;;;;10.55;2.13;;;14.10;99.90;;;;;;5456726;26;20075;-75
2024/04/14 04:14:34;;;;;;;6.53;1.80;;;14.10;99.90;;;;;;5481711;26;20002;-76
2024/04/14 04:17:00;;;;;;;8.27;1.58;;;14.00;99.90;;;;;;5455487;26;20010;-75
2024/04/14 04:19:25;;;;;;;8.50;1.80;;;14.00;99.90;;;;;;5478300;26;20363;-76
2024/04/14 04:21:52;;;;;;;8.52;1.58;;;14.00;99.90;;;;;;5457212;26;20009;-76
2024/04/14 04:24:18;;;;;;;7.75;1.38;;;13.90;99.90;;;;;;5470149;26;20358;-76
2024/04/14 04:26:43;;;;;;;11.35;1.65;;;13.90;99.90;;;;;;5444144;26;20128;-76
2024/04/14 04:29:09;;;;;;;7.78;1.38;;;13.90;99.90;;;;;;5470255;26;20010;-76
2024/04/14 04:31:34;;;;;;;9.52;1.60;;;13.80;99.90;;;;;;5462096;26;20274;-76
2024/04/14 04:34:00;;;;;;;6.43;1.55;;;13.80;99.90;;;;;;5481261;26;20006;-76
2024/04/14 04:36:26;;;;;;;7.97;1.50;;;13.70;99.90;;;;;;5469377;26;20353;-75
2024/04/14 04:38:54;;;;;;;7.75;1.52;;;13.60;99.90;;;;;;5468308;26;19998;-76
2024/04/14 04:41:20;;;;;;;8.85;1.55;;;13.60;99.90;;;;;;5454128;26;20088;-76
2024/04/14 04:43:47;;;;;;;8.75;1.50;;;13.60;99.90;;;;;;5480605;26;20002;-76
2024/04/14 04:46:12;;;;;;;6.53;1.30;;;13.50;99.90;;;;;;5456082;26;20075;-76
2024/04/14 04:48:38;;;;;;;6.30;1.60;;;13.50;99.90;;;;;;5464223;26;20006;-76
2024/04/14 04:51:04;;;;;;;8.25;1.73;;;13.40;99.90;;;;;;5452311;26;20011;-76
2024/04/14 04:53:30;;;;;;;10.75;1.73;;;13.40;99.90;;;;;;5477015;26;20074;-75
2024/04/14 04:55:56;;;;;;;11.93;1.70;;;13.40;99.90;;;;;;5479430;26;20014;-77
2024/04/14 04:58:21;;;;;;;6.40;1.50;;;13.40;99.90;;;;;;5482042;26;20008;-76
2024/04/14 05:00:57;;;;;;;9.10;2.15;;;13.40;99.90;;;;;;5466809;26;20019;-75
2024/04/14 05:03:26;;;;;;;10.40;1.90;;;13.40;99.90;;;;;;5472297;26;20009;-76
2024/04/14 05:05:59;;;;;;;11.13;1.90;;;13.40;99.90;;;;;;5467398;26;20382;-76
2024/04/14 05:08:26;;;;;;;8.45;1.60;;;13.40;99.90;;;;;;5470595;26;20010;-76
2024/04/14 05:10:56;;;;;;;12.23;1.73;;;13.40;99.90;;;;;;5466299;26;19994;-75
2024/04/14 05:13:23;;;;;;;9.27;1.52;;;13.40;99.90;;;;;;5457770;26;20114;-75
2024/04/14 05:15:49;;;;;;;8.82;1.65;;;13.40;99.90;;;;;;5469953;26;20017;-76
2024/04/14 05:18:15;;;;;;;7.07;1.48;;;13.40;99.90;;;;;;5442924;26;20017;-75
2024/04/14 05:20:41;;;;;;;7.80;1.40;;;13.40;99.90;;;;;;5469553;26;20003;-75
2024/04/14 05:23:07;;;;;;;8.20;1.60;;;13.40;99.90;;;;;;5462389;26;20075;-75
2024/04/14 05:25:34;;;;;;;10.55;1.25;;;13.40;99.90;;;;;;5454786;26;20006;-75
2024/04/14 05:28:00;;;;;;;6.68;1.48;;;13.40;99.90;;;;;;5467901;26;20017;-75
2024/04/14 05:30:25;;;;;;;5.68;1.35;;;13.40;99.90;;;;;;5465687;26;19996;-76
2024/04/14 05:32:51;;;;;;;11.20;1.70;;;13.40;99.90;;;;;;5470726;26;19991;-76
2024/04/14 05:35:17;;;;;;;8.65;1.65;;;13.40;99.90;;;;;;5464601;26;20014;-76
2024/04/14 05:37:43;;;;;;;8.05;1.65;;;13.40;99.90;;;;;;5455507;26;20001;-76
2024/04/14 05:40:09;;;;;;;8.57;1.38;;;13.40;99.90;;;;;;5462851;26;20375;-76
2024/04/14 05:42:35;;;;;;;6.90;1.35;;;13.40;99.90;;;;;;5473074;26;19994;-76
2024/04/14 05:45:00;;;;;;;7.90;1.48;;;13.40;99.90;;;;;;5480093;26;20009;-75
2024/04/14 05:47:26;;;;;;;8.75;1.92;;;13.40;99.90;;;;;;5456674;26;20071;-76
2024/04/14 05:49:52;;;;;;;8.45;1.55;;;13.30;99.90;;;;;;5472133;26;20044;-76
2024/04/14 05:52:17;;;;;;;6.60;1.50;;;13.30;99.90;;;;;;5467310;26;19999;-76
2024/04/14 05:54:43;;;;;;;9.48;1.77;;;13.20;99.90;;;;;;5441416;26;20011;-76
2024/04/14 05:57:08;;;;;;;6.22;1.27;;;13.20;99.90;;;;;;5479852;26;20009;-76
2024/04/14 05:59:34;;;;;;;9.07;1.77;;;13.20;99.90;;;;;;5459027;26;20239;-76
2024/04/14 06:02:00;;;;;;;8.02;1.40;;;13.20;99.90;;;;;;5475987;26;20017;-76
2024/04/14 06:04:25;;;;;;;5.55;1.45;;;13.20;99.90;;;;;;5479768;26;20582;-76
2024/04/14 06:06:51;;;;;;;6.85;1.85;;;13.20;99.90;;;;;;5454737;26;20089;-76
2024/04/14 06:09:17;;;;;;;7.40;1.95;;;13.20;99.90;;;;;;5465998;26;19999;-76
2024/04/14 06:11:42;;;;;;;8.57;1.83;;;13.20;99.90;;;;;;5468977;26;19994;-76
2024/04/14 06:14:08;;;;;;;9.27;2.15;;;13.20;99.90;;;;;;5454222;26;20384;-76
2024/04/14 06:16:34;;;;;;;8.57;1.50;;;13.20;99.90;;;;;;5480673;26;20424;-76
2024/04/14 06:18:59;;;;;;;6.15;1.27;;;13.20;99.90;;;;;;5479321;26;20002;-76
2024/04/14 06:21:25;;;;;;;8.52;1.70;;;13.20;99.90;;;;;;5461419;26;19995;-76
2024/04/14 06:23:50;;;;;;;6.78;1.70;;;13.20;99.90;;;;;;5467280;26;20074;-76
2024/04/14 06:26:16;;;;;;;11.55;2.33;;;13.20;99.90;;;;;;5480388;26;20018;-75
2024/04/14 06:28:42;;;;;;;8.40;1.83;;;13.10;99.90;;;;;;5463018;26;19998;-76
2024/04/14 06:31:08;;;;;;;11.00;2.53;;;13.10;99.90;;;;;;5477211;26;20351;-76
2024/04/14 06:33:33;;;;;;;12.20;1.88;;;13.10;99.90;;;;;;5479225;26;19998;-76
2024/04/14 06:35:59;;;;;;;9.65;2.35;;;13.10;99.90;;;;;;5478720;26;20337;-76
2024/04/14 06:38:25;;;;;;;11.05;1.80;;;13.10;99.90;;;;;;5479886;26;20351;-76
2024/04/14 06:40:50;;;;;;;9.23;1.83;;;13.10;99.90;;;;;;5478817;26;20396;-76
2024/04/14 06:43:16;;;;;;;7.53;1.00;;;13.20;99.90;;;;;;5479538;26;19998;-76
2024/04/14 06:45:43;;;;;;;11.85;2.10;;;13.20;99.90;;;;;;5471753;26;19994;-76
2024/04/14 06:48:09;;;;;;;5.60;1.52;;;13.20;99.90;;;;;;5483018;26;20360;-76
2024/04/14 06:50:34;;;;;;;9.88;1.80;;;13.20;99.90;;;;;;5482474;26;20002;-76
2024/04/14 06:53:00;;;;;;;10.32;2.42;;;13.20;99.90;;;;;;5482155;26;20478;-76
2024/04/14 06:55:26;;;;;;;7.18;1.90;;;13.20;99.90;;;;;;5481919;26;20066;-76
2024/04/14 06:57:52;;;;;;;14.98;2.28;;;13.20;99.90;;;;;;5482405;26;19998;-76
2024/04/14 07:00:17;;;;;;;5.75;1.92;;;13.30;99.90;;;;;;5482272;26;20010;-75
2024/04/14 07:02:43;;;;;;;8.43;1.75;;;13.30;99.90;;;;;;5482174;26;20467;-76
2024/04/14 07:05:08;;;;;;;10.15;1.92;;;13.30;99.90;;;;;;5482042;26;19998;-76
2024/04/14 07:07:35;;;;;;;6.80;1.65;;;13.30;99.90;;;;;;5482579;26;20473;-76
2024/04/14 07:10:00;;;;;;;9.02;1.77;;;13.40;99.90;;;;;;5481783;26;20096;-76
2024/04/14 07:12:26;;;;;;;7.13;1.70;;;13.40;99.90;;;;;;5482685;26;19998;-76
2024/04/14 07:14:51;;;;;;;13.48;1.40;;;13.30;99.90;;;;;;5481897;26;20402;-76
2024/04/14 07:17:17;;;;;;;6.70;1.70;;;13.30;99.90;;;;;;5468114;26;20041;-76
2024/04/14 07:19:43;;;;;;;5.95;1.70;;;13.30;99.90;;;;;;5471994;26;20013;-76
2024/04/14 07:22:09;;;;;;;7.88;1.83;;;13.30;99.90;;;;;;5469373;26;20006;-75
2024/04/14 07:24:34;;;;;;;7.93;1.52;;;13.40;99.90;;;;;;5472056;26;20074;-76
2024/04/14 07:27:00;;;;;;;13.70;2.58;;;13.40;99.90;;;;;;5482653;26;20426;-76
2024/04/14 07:29:26;;;;;;;6.85;1.67;;;13.40;99.90;;;;;;5456616;26;20101;-76
2024/04/14 07:31:51;;;;;;;7.50;1.58;;;13.50;99.90;;;;;;5481856;26;20034;-76
2024/04/14 07:34:17;;;;;;;10.20;1.90;;;13.40;99.90;;;;;;5481607;26;20002;-75
2024/04/14 07:36:43;;;;;;;7.25;1.63;;;13.50;99.90;;;;;;5482076;26;20013;-76
2024/04/14 07:39:09;;;;;;;7.40;1.33;;;13.40;99.90;;;;;;5471056;26;19998;-76
2024/04/14 07:41:34;;;;;;;8.88;1.75;;;13.50;99.90;;;;;;5482420;26;20009;-76
2024/04/14 07:44:00;;;;;;;9.70;1.73;;;13.50;99.90;;;;;;5481809;26;20002;-76
2024/04/14 07:46:27;;;;;;;10.85;1.83;;;13.60;99.90;;;;;;5482039;26;19998;-76
2024/04/14 07:48:53;;;;;;;8.57;1.60;;;13.70;99.90;;;;;;5482550;26;20002;-76
2024/04/14 07:51:19;;;;;;;6.00;1.40;;;13.70;99.90;;;;;;5481314;26;20017;-76
2024/04/14 07:53:46;;;;;;;6.00;1.60;;;13.70;99.90;;;;;;5480738;26;20017;-76
2024/04/14 07:56:12;;;;;;;7.47;1.65;;;13.80;99.90;;;;;;5481407;26;20013;-76
2024/04/14 07:58:37;;;;;;;10.68;1.55;;;13.80;99.90;;;;;;5482652;26;20009;-76
2024/04/14 08:01:04;;;;;;;10.02;2.17;;;13.80;99.90;;;;;;5463890;26;20353;-75
2024/04/14 08:03:30;;;;;;;9.55;1.67;;;13.90;99.90;;;;;;5471607;26;20025;-76
2024/04/14 08:05:55;;;;;;;10.88;1.70;;;13.90;99.90;;;;;;5459622;26;20456;-76
2024/04/14 08:08:21;;;;;;;5.25;1.42;;;13.90;99.90;;;;;;5457125;26;20003;-76
2024/04/14 08:10:47;;;;;;;9.57;1.90;;;13.90;99.90;;;;;;5470750;26;20013;-76
2024/04/14 08:13:12;;;;;;;8.20;1.50;;;13.90;99.90;;;;;;5467860;26;20447;-75
2024/04/14 08:15:39;;;;;;;8.50;1.58;;;14.00;99.90;;;;;;5456199;26;19998;-75
2024/04/14 08:18:05;;;;;;;11.07;1.88;;;14.10;99.90;;;;;;5482352;26;20468;-75
2024/04/14 08:20:31;;;;;;;8.23;1.42;;;14.10;99.90;;;;;;5455849;26;20017;-76
2024/04/14 08:22:56;;;;;;;9.32;1.60;;;14.10;99.90;;;;;;5478367;26;19990;-75
2024/04/14 08:25:22;;;;;;;9.05;1.88;;;14.10;99.90;;;;;;5481220;26;20347;-76
2024/04/14 08:27:47;;;;;;;7.97;1.88;;;14.10;99.90;;;;;;5481100;26;20130;-75
2024/04/14 08:30:13;;;;;;;6.85;1.40;;;14.10;99.90;;;;;;5481142;26;20037;-76
2024/04/14 08:32:38;;;;;;;6.82;1.45;;;14.10;99.90;;;;;;5477509;26;20347;-76
2024/04/14 08:35:05;;;;;;;11.57;1.88;;;14.10;99.90;;;;;;5480777;26;20006;-76
2024/04/14 08:37:31;;;;;;;9.00;1.33;;;14.10;99.90;;;;;;5474822;26;20096;-76
2024/04/14 08:39:56;;;;;;;8.90;2.03;;;14.20;99.90;;;;;;5442697;26;20553;-76
2024/04/14 08:42:23;;;;;;;5.82;1.40;;;14.30;99.90;;;;;;5464381;26;20440;-75
2024/04/14 08:44:49;;;;;;;7.43;1.25;;;14.30;99.90;;;;;;5468325;26;20025;-75
2024/04/14 08:47:19;;;;;;;7.20;1.63;;;14.40;99.90;;;;;;5476527;26;20022;-75
2024/04/14 08:49:46;;;;;;;7.85;1.73;;;14.40;99.90;;;;;;5475233;26;20018;-75
2024/04/14 08:52:15;;;;;;;9.25;1.63;;;14.40;99.90;;;;;;5472998;26;20021;-75
2024/04/14 08:54:40;;;;;;;8.43;1.88;;;14.40;99.90;;;;;;5465843;26;20591;-76
2024/04/14 08:57:08;;;;;;;8.43;1.73;;;14.40;99.90;;;;;;5481550;26;20002;-75
2024/04/14 08:59:41;;;;;;;7.55;1.50;;;14.50;99.90;;;;;;5460654;26;20456;-75
2024/04/14 09:02:10;;;;;;;7.28;1.48;;;14.50;99.70;;;;;;5470149;26;20478;-75
2024/04/14 09:04:36;;;;;;;9.13;1.80;;;14.50;99.50;;;;;;5464206;26;20021;-75
2024/04/14 09:07:02;;;;;;;6.03;1.23;;;14.50;99.10;;;;;;5469755;26;19999;-75
2024/04/14 09:09:27;;;;;;;9.95;1.70;;;14.50;99.10;;;;;;5475700;26;19994;-75
2024/04/14 09:11:55;;;;;;;6.53;1.35;;;14.50;99.10;;;;;;5477783;26;19998;-75
2024/04/14 09:14:22;;;;;;;7.60;1.65;;;14.50;99.00;;;;;;5474093;26;19997;-75
2024/04/14 09:16:49;;;;;;;9.65;1.55;;;14.50;98.60;;;;;;5477970;26;20009;-75
2024/04/14 09:19:17;;;;;;;6.28;1.77;;;14.50;98.20;;;;;;5481158;26;20008;-75
2024/04/14 09:21:43;;;;;;;6.15;1.20;;;14.40;98.30;;;;;;5477125;26;20324;-75
2024/04/14 09:24:09;;;;;;;6.32;1.13;;;14.40;98.20;;;;;;5479243;26;20002;-75
2024/04/14 09:26:35;;;;;;;7.00;1.55;;;14.50;98.20;;;;;;5462899;26;19999;-75
2024/04/14 09:29:05;;;;;;;7.15;1.40;;;14.50;98.10;;;;;;5446200;26;19998;-75
2024/04/14 09:31:30;;;;;;;5.13;1.10;;;14.50;97.80;;;;;;5465081;26;20010;-75
2024/04/14 09:33:56;;;;;;;10.57;1.52;;;14.60;97.80;;;;;;5470136;26;20067;-75
2024/04/14 09:36:26;;;;;;;4.97;1.02;;;14.60;97.40;;;;;;5474865;26;20330;-75
2024/04/14 09:38:55;;;;;;;5.28;1.20;;;14.60;97.10;;;;;;5444371;26;20023;-75
2024/04/14 09:41:22;;;;;;;5.32;1.38;;;14.70;97.00;;;;;;5471898;26;20049;-75
2024/04/14 09:43:50;;;;;;;6.13;1.50;;;14.70;96.80;;;;;;5480064;26;20055;-75
2024/04/14 09:46:17;;;;;;;5.70;1.30;;;14.80;96.70;;;;;;5454481;26;20645;-74
2024/04/14 09:48:44;;;;;;;8.10;1.55;;;14.80;96.70;;;;;;5474002;26;20091;-75
2024/04/14 09:51:10;;;;;;;6.97;1.27;;;14.90;96.40;;;;;;5465146;26;20002;-75
2024/04/14 09:53:36;;;;;;;6.38;1.70;;;14.90;96.30;;;;;;5469310;26;20017;-75
2024/04/14 09:56:02;;;;;;;7.22;1.48;;;14.90;96.30;;;;;;5472518;26;20008;-75
2024/04/14 09:58:28;;;;;;;6.95;1.40;;;15.00;96.40;;;;;;5479647;26;19998;-75
2024/04/14 10:00:58;;;;;;;7.07;1.70;;;15.10;96.40;;;;;;5463199;26;20034;-75
2024/04/14 10:03:27;;;;;;;8.23;1.55;;;15.10;96.30;;;;;;5473960;26;20006;-75
2024/04/14 10:05:56;;;;;;;7.03;1.55;;;15.20;96.40;;;;;;5479299;26;20442;-75
2024/04/14 10:08:21;;;;;;;6.85;1.40;;;15.30;96.50;;;;;;5480131;26;19998;-75
2024/04/14 10:10:55;;;;;;;9.05;1.80;;;15.30;96.50;;;;;;5478635;26;20095;-75
2024/04/14 10:13:21;;;;;;;6.10;1.88;;;15.40;96.50;;;;;;5480391;26;20002;-75
2024/04/14 10:15:57;;;;;;;7.20;1.52;;;15.40;96.50;;;;;;5479567;26;20428;-75
2024/04/14 10:18:25;;;;;;;8.48;1.52;;;15.50;96.60;;;;;;5466571;26;20006;-75
2024/04/14 10:20:51;;;;;;;5.35;1.13;;;15.60;96.30;;;;;;5464941;26;20017;-75
2024/04/14 10:23:18;;;;;;;7.95;2.00;;;15.60;95.40;;;;;;5480483;26;20010;-75
2024/04/14 10:25:47;;;;;;;6.00;1.33;;;15.50;94.80;;;;;;5478625;26;20006;-75
2024/04/14 10:28:20;;;;;;;4.97;1.42;;;15.50;94.50;;;;;;5461903;26;19999;-75
2024/04/14 10:30:49;;;;;;;7.53;1.27;;;15.50;94.30;;;;;;5474644;26;20022;-75
2024/04/14 10:33:21;;;;;;;8.50;1.92;;;15.50;94.20;;;;;;5480799;26;20002;-75
2024/04/14 10:35:47;;;;;;;5.32;1.25;;;15.60;94.10;;;;;;5478337;26;20470;-75
2024/04/14 10:38:22;;;;;;;4.85;1.25;;;15.70;94.10;;;;;;5472007;26;19998;-75
2024/04/14 10:40:47;;;;;;;7.45;1.42;;;15.80;93.80;;;;;;5472650;26;20006;-75
2024/04/14 10:43:13;;;;;;;6.13;0.93;;;15.80;93.40;;;;;;5478466;26;20617;-76
2024/04/14 10:45:39;;;;;;;5.50;1.00;;;15.90;93.30;;;;;;5478439;26;20005;-75
2024/04/14 10:48:06;;;;;;;8.68;2.33;;;16.00;93.30;;;;;;5479818;26;20009;-75
2024/04/14 10:50:32;;;;;;;8.43;1.42;;;16.20;93.20;;;;;;5475325;26;20470;-75
2024/04/14 10:52:58;;;;;;;3.00;0.90;;;16.30;92.90;;;;;;5479429;26;19994;-75
2024/04/14 10:55:24;;;;;;;4.45;1.42;;;16.30;92.50;;;;;;5478521;26;19998;-75
2024/04/14 10:57:50;;;;;;;5.45;1.20;;;16.40;92.50;;;;;;5479566;26;20400;-75
2024/04/14 11:00:16;;;;;;;6.40;1.40;;;16.30;91.80;;;;;;5478351;26;20399;-75
2024/04/14 11:02:43;;;;;;;4.00;1.05;;;16.30;91.80;;;;;;5471988;26;19999;-75
2024/04/14 11:05:09;;;;;;;5.38;1.00;;;16.30;91.40;;;;;;5470583;26;20002;-75
2024/04/14 11:07:36;;;;;;;7.63;1.00;;;16.30;91.20;;;;;;5479974;26;20410;-76
2024/04/14 11:10:02;;;;;;;7.00;1.20;;;16.30;90.40;;;;;;5477922;26;20070;-75
2024/04/14 11:12:28;;;;;;;5.78;1.15;;;16.20;90.00;;;;;;5479958;26;20002;-76
2024/04/14 11:14:55;;;;;;;3.63;1.17;;;16.20;90.20;;;;;;5478515;26;19994;-75
2024/04/14 11:17:20;;;;;;;4.10;1.08;;;16.30;90.60;;;;;;5470404;26;20019;-76
2024/04/14 11:19:46;;;;;;;6.00;1.20;;;16.50;90.30;;;;;;5460988;26;20376;-76
2024/04/14 11:22:18;;;;;;;3.33;1.10;;;16.50;90.00;;;;;;5476066;26;19994;-76
2024/04/14 11:24:48;;;;;;;4.38;0.77;;;16.60;89.90;;;;;;5458475;26;20470;-76
2024/04/14 11:27:15;;;;;;;4.18;0.80;;;16.70;90.00;;;;;;5453795;26;19999;-75
2024/04/14 11:29:42;;;;;;;2.90;0.95;;;16.80;89.10;;;;;;5464602;26;20293;-75
2024/04/14 11:32:28;;;;;;;4.53;1.15;;;16.80;88.90;;;;;;5469299;26;20010;-75
2024/04/14 11:34:57;;;;;;;3.33;0.90;;;16.90;89.40;;;;;;5457384;26;20451;-76
2024/04/14 11:37:22;;;;;;;5.97;1.08;;;17.00;89.50;;;;;;5463197;26;19994;-76
2024/04/14 11:39:50;;;;;;;5.55;1.10;;;17.10;89.60;;;;;;5476835;26;20063;-76
2024/04/14 11:42:19;;;;;;;2.58;0.90;;;17.20;88.40;;;;;;5461310;26;20460;-76
2024/04/14 11:44:45;;;;;;;2.35;0.70;;;17.10;88.30;;;;;;5480749;26;20690;-76
2024/04/14 11:47:10;;;;;;;2.88;1.00;;;17.10;88.10;;;;;;5472028;26;20038;-75
2024/04/14 11:49:36;;;;;;;4.60;1.38;;;17.10;87.80;;;;;;5469035;26;20006;-75
2024/04/14 11:52:02;;;;;;;3.75;0.93;;;17.20;87.60;;;;;;5460330;26;20111;-75
2024/04/14 11:54:27;;;;;;;4.30;1.10;;;17.20;87.50;;;;;;5482376;26;20358;-75
2024/04/14 11:56:53;;;;;;;4.05;1.10;;;17.30;87.10;;;;;;5460130;26;20030;-76
2024/04/14 11:59:21;;;;;;;4.90;1.23;;;17.30;86.60;;;;;;5462833;26;20433;-75
2024/04/14 12:01:47;;;;;;;5.35;1.25;;;17.30;86.30;;;;;;5451855;26;19999;-75
2024/04/14 12:04:12;;;;;;;4.65;1.40;;;17.40;86.60;;;;;;5459042;26;20002;-75
2024/04/14 12:06:38;;;;;;;4.20;1.15;;;17.40;86.20;;;;;;5477836;26;19998;-75
2024/04/14 12:09:04;;;;;;;6.55;1.50;;;17.50;86.00;;;;;;5456006;26;20010;-74
2024/04/14 12:11:30;;;;;;;3.25;0.82;;;17.50;86.10;;;;;;5458025;26;19999;-76
2024/04/14 12:13:55;;;;;;;4.47;1.60;;;17.60;85.90;;;;;;5459872;26;20002;-75
2024/04/14 12:16:21;;;;;;;6.07;1.17;;;17.70;85.20;;;;;;5472904;26;20012;-75
2024/04/14 12:18:47;;;;;;;4.05;1.27;;;17.50;84.10;;;;;;5466288;26;20008;-75
2024/04/14 12:21:12;;;;;;;3.45;0.95;;;17.50;84.30;;;;;;5468805;26;20383;-75
2024/04/14 12:23:38;;;;;;;4.32;1.30;;;17.60;84.50;;;;;;5452656;26;19998;-76
2024/04/14 12:26:04;;;;;;;7.60;1.40;;;17.60;83.90;;;;;;5441937;26;20234;-75
2024/04/14 12:28:29;;;;;;;3.03;0.90;;;17.60;84.60;;;;;;5465849;26;20005;-75
2024/04/14 12:30:55;;;;;;;7.18;1.23;;;17.70;83.90;;;;;;5476751;26;20008;-75
2024/04/14 12:33:20;;;;;;;4.43;1.33;;;17.70;83.60;;;;;;5477770;26;20005;-75
2024/04/14 12:35:46;;;;;;;8.02;1.40;;;17.60;83.10;;;;;;5461744;26;19998;-75
2024/04/14 12:38:11;;;;;;;5.78;1.00;;;17.70;83.80;;;;;;5474842;26;19995;-75
2024/04/14 12:40:37;;;;;;;6.97;1.27;;;17.70;83.80;;;;;;5460815;26;20002;-74